Terminal Aerodrome Forecast
Issued by NWS

Current Version | Previous Version | Graphics & Text | Print | Product List | Glossary On
Versions: 1 2 3 4 5 6 7 8 9 10 11 12 13 14 15 16 17 18 19 20 21 22 23 24
566
FTUS41 KRLX 220546
TAFCKB
TAF
KCKB 220546Z 2206/2306 34006KT P6SM OVC015
     FM220900 32005KT 4SM BR SCT001 BKN008
     FM221200 30006KT P6SM BKN015
     FM221500 33006KT P6SM BKN025
     FM221800 33006KT 5SM SHRA VCTS BKN030CB
     FM222300 01005KT 6SM -SHRA BKN040
     FM230100 VRB03KT 6SM BR BKN040=

USA.gov is the U.S. government's official web portal to all federal, state and local government web resources and services.